sensor_id;sensor_type;location;lat;lon;timestamp;pressure;altitude;pressure_sealevel;temperature;humidity
74542;BME280;63015;45.378;20.360;2022-10-22T00:00:16;101036.06;;;13.29;50.95
74542;BME280;63015;45.378;20.360;2022-10-22T00:02:16;101033.47;;;13.32;50.78
74542;BME280;63015;45.378;20.360;2022-10-22T00:04:19;101025.63;;;13.32;50.90
74542;BME280;63015;45.378;20.360;2022-10-22T00:06:20;101032.59;;;13.36;50.79
74542;BME280;63015;45.378;20.360;2022-10-22T00:08:21;101034.34;;;13.36;50.88
74542;BME280;63015;45.378;20.360;2022-10-22T00:10:21;101040.44;;;13.38;50.82
74542;BME280;63015;45.378;20.360;2022-10-22T00:12:22;101044.81;;;13.31;51.03
74542;BME280;63015;45.378;20.360;2022-10-22T00:14:23;101033.47;;;13.32;51.05
74542;BME280;63015;45.378;20.360;2022-10-22T00:16:24;101039.56;;;13.26;51.47
74542;BME280;63015;45.378;20.360;2022-10-22T00:18:24;101046.56;;;13.24;51.35
74542;BME280;63015;45.378;20.360;2022-10-22T00:20:25;101040.44;;;13.30;51.17
74542;BME280;63015;45.378;20.360;2022-10-22T00:22:25;101033.47;;;13.32;51.12
74542;BME280;63015;45.378;20.360;2022-10-22T00:24:26;101032.59;;;13.24;51.29
74542;BME280;63015;45.378;20.360;2022-10-22T00:26:26;101029.13;;;13.28;51.38
74542;BME280;63015;45.378;20.360;2022-10-22T00:28:28;101030.84;;;13.27;51.49
74542;BME280;63015;45.378;20.360;2022-10-22T00:30:28;101026.50;;;13.25;51.51
74542;BME280;63015;45.378;20.360;2022-10-22T00:32:29;101015.16;;;13.24;51.66
74542;BME280;63015;45.378;20.360;2022-10-22T00:34:29;101007.31;;;13.23;51.87
74542;BME280;63015;45.378;20.360;2022-10-22T00:36:30;100999.47;;;13.23;51.79
74542;BME280;63015;45.378;20.360;2022-10-22T00:38:32;100998.59;;;13.22;51.94
74542;BME280;63015;45.378;20.360;2022-10-22T00:40:32;101008.19;;;13.25;51.92
74542;BME280;63015;45.378;20.360;2022-10-22T00:42:33;101009.94;;;13.23;51.85
74542;BME280;63015;45.378;20.360;2022-10-22T00:47:11;100995.97;;;13.16;52.19
74542;BME280;63015;45.378;20.360;2022-10-22T00:49:11;100983.78;;;13.18;52.02
74542;BME280;63015;45.378;20.360;2022-10-22T00:51:12;100988.13;;;13.22;52.17
74542;BME280;63015;45.378;20.360;2022-10-22T00:53:20;100993.34;;;13.24;52.22
74542;BME280;63015;45.378;20.360;2022-10-22T00:55:23;100993.38;;;13.19;52.41
74542;BME280;63015;45.378;20.360;2022-10-22T00:57:24;100986.38;;;13.23;52.11
74542;BME280;63015;45.378;20.360;2022-10-22T00:59:26;100995.13;;;13.15;52.34
74542;BME280;63015;45.378;20.360;2022-10-22T01:01:29;100997.75;;;13.20;52.42
74542;BME280;63015;45.378;20.360;2022-10-22T01:03:31;100995.97;;;13.18;52.34
74542;BME280;63015;45.378;20.360;2022-10-22T01:06:11;100999.47;;;13.18;52.40
74542;BME280;63015;45.378;20.360;2022-10-22T01:08:06;101000.34;;;13.20;52.42
74542;BME280;63015;45.378;20.360;2022-10-22T01:12:39;101002.97;;;13.20;52.42
74542;BME280;63015;45.378;20.360;2022-10-22T01:15:14;100985.53;;;13.19;52.51
74542;BME280;63015;45.378;20.360;2022-10-22T01:17:47;100989.91;;;13.14;52.90
74542;BME280;63015;45.378;20.360;2022-10-22T01:29:09;100977.66;;;13.19;53.27
74542;BME280;63015;45.378;20.360;2022-10-22T01:31:11;100989.88;;;13.11;53.40
74542;BME280;63015;45.378;20.360;2022-10-22T01:33:18;100982.03;;;13.09;53.38
74542;BME280;63015;45.378;20.360;2022-10-22T01:35:25;100982.91;;;13.10;53.47
74542;BME280;63015;45.378;20.360;2022-10-22T01:37:32;100980.28;;;13.08;53.47
74542;BME280;63015;45.378;20.360;2022-10-22T01:39:35;100971.56;;;13.09;53.40
74542;BME280;63015;45.378;20.360;2022-10-22T01:41:38;100982.06;;;13.06;53.41
74542;BME280;63015;45.378;20.360;2022-10-22T01:43:42;100980.31;;;13.11;53.29
74542;BME280;63015;45.378;20.360;2022-10-22T01:45:46;100971.56;;;13.15;53.40
74542;BME280;63015;45.378;20.360;2022-10-22T01:55:01;100978.53;;;13.13;53.25
74542;BME280;63015;45.378;20.360;2022-10-22T02:03:44;100970.69;;;13.20;53.25
74542;BME280;63015;45.378;20.360;2022-10-22T02:05:53;100975.91;;;13.23;53.32
74542;BME280;63015;45.378;20.360;2022-10-22T02:10:03;100975.91;;;13.13;53.36
74542;BME280;63015;45.378;20.360;2022-10-22T02:12:05;100975.91;;;13.18;53.25
74542;BME280;63015;45.378;20.360;2022-10-22T02:14:06;100972.44;;;13.19;53.18
74542;BME280;63015;45.378;20.360;2022-10-22T02:16:13;100978.53;;;13.23;53.13
74542;BME280;63015;45.378;20.360;2022-10-22T02:18:18;100975.91;;;13.20;53.27
74542;BME280;63015;45.378;20.360;2022-10-22T02:20:32;100978.56;;;13.16;53.37
74542;BME280;63015;45.378;20.360;2022-10-22T02:22:34;100976.81;;;13.14;53.47
74542;BME280;63015;45.378;20.360;2022-10-22T02:24:36;100990.75;;;13.19;53.27
74542;BME280;63015;45.378;20.360;2022-10-22T02:29:25;100987.28;;;13.15;53.48
74542;BME280;63015;45.378;20.360;2022-10-22T02:31:30;100982.03;;;13.20;53.23
74542;BME280;63015;45.378;20.360;2022-10-22T02:33:40;100969.78;;;13.22;53.16
74542;BME280;63015;45.378;20.360;2022-10-22T02:35:42;100982.03;;;13.14;53.24
74542;BME280;63015;45.378;20.360;2022-10-22T02:37:44;100975.94;;;13.16;53.54
74542;BME280;63015;45.378;20.360;2022-10-22T02:39:45;100991.63;;;13.20;53.26
74542;BME280;63015;45.378;20.360;2022-10-22T02:41:46;100982.88;;;13.16;53.55
74542;BME280;63015;45.378;20.360;2022-10-22T02:43:54;100980.28;;;13.16;53.77
74542;BME280;63015;45.378;20.360;2022-10-22T02:45:55;100979.41;;;13.22;53.45
74542;BME280;63015;45.378;20.360;2022-10-22T02:47:56;100979.41;;;13.22;53.28
74542;BME280;63015;45.378;20.360;2022-10-22T02:49:57;100978.53;;;13.20;53.78
74542;BME280;63015;45.378;20.360;2022-10-22T02:51:57;100979.41;;;13.22;53.60
74542;BME280;63015;45.378;20.360;2022-10-22T02:53:59;100982.00;;;13.25;53.54
74542;BME280;63015;45.378;20.360;2022-10-22T02:55:59;100986.34;;;13.29;53.41
74542;BME280;63015;45.378;20.360;2022-10-22T02:58:00;100980.25;;;13.22;53.61
74542;BME280;63015;45.378;20.360;2022-10-22T03:00:00;100979.38;;;13.26;53.66
74542;BME280;63015;45.378;20.360;2022-10-22T03:02:01;100972.41;;;13.22;53.67
74542;BME280;63015;45.378;20.360;2022-10-22T03:04:01;100978.53;;;13.20;53.77
74542;BME280;63015;45.378;20.360;2022-10-22T03:06:02;100982.03;;;13.17;53.88
74542;BME280;63015;45.378;20.360;2022-10-22T03:08:03;100976.78;;;13.19;53.86
74542;BME280;63015;45.378;20.360;2022-10-22T03:10:04;100971.56;;;13.22;53.89
74542;BME280;63015;45.378;20.360;2022-10-22T03:12:05;100968.06;;;13.13;54.31
74542;BME280;63015;45.378;20.360;2022-10-22T03:14:08;100968.94;;;13.17;53.90
74542;BME280;63015;45.378;20.360;2022-10-22T03:16:08;100963.72;;;13.22;54.06
74542;BME280;63015;45.378;20.360;2022-10-22T03:18:09;100965.44;;;13.23;54.20
74542;BME280;63015;45.378;20.360;2022-10-22T03:20:10;100971.56;;;13.20;54.26
74542;BME280;63015;45.378;20.360;2022-10-22T03:22:14;100972.44;;;13.19;54.15
74542;BME280;63015;45.378;20.360;2022-10-22T03:24:26;100979.41;;;13.19;54.52
74542;BME280;63015;45.378;20.360;2022-10-22T03:26:28;100979.41;;;13.20;54.33
74542;BME280;63015;45.378;20.360;2022-10-22T03:28:28;100986.38;;;13.13;54.62
74542;BME280;63015;45.378;20.360;2022-10-22T03:30:29;100995.09;;;13.17;54.34
74542;BME280;63015;45.378;20.360;2022-10-22T03:32:30;100996.88;;;13.16;54.50
74542;BME280;63015;45.378;20.360;2022-10-22T03:34:30;100999.50;;;13.10;54.72
74542;BME280;63015;45.378;20.360;2022-10-22T03:36:32;101009.97;;;13.10;54.57
74542;BME280;63015;45.378;20.360;2022-10-22T03:38:35;101003.84;;;13.13;54.51
74542;BME280;63015;45.378;20.360;2022-10-22T03:40:36;100995.16;;;13.06;54.55
74542;BME280;63015;45.378;20.360;2022-10-22T03:42:38;100997.75;;;13.06;54.51
74542;BME280;63015;45.378;20.360;2022-10-22T03:44:39;101002.09;;;13.07;54.61
74542;BME280;63015;45.378;20.360;2022-10-22T03:46:39;101000.38;;;13.08;54.48
74542;BME280;63015;45.378;20.360;2022-10-22T03:48:40;100998.63;;;13.02;54.75
74542;BME280;63015;45.378;20.360;2022-10-22T03:50:41;100998.63;;;13.00;54.83
74542;BME280;63015;45.378;20.360;2022-10-22T03:52:41;100996.88;;;12.98;54.97
74542;BME280;63015;45.378;20.360;2022-10-22T03:54:42;100989.91;;;13.00;54.98
74542;BME280;63015;45.378;20.360;2022-10-22T03:56:43;100986.44;;;12.95;55.11
74542;BME280;63015;45.378;20.360;2022-10-22T03:58:43;100983.81;;;12.95;55.12
74542;BME280;63015;45.378;20.360;2022-10-22T04:00:44;100987.31;;;13.00;54.95
74542;BME280;63015;45.378;20.360;2022-10-22T04:02:44;100986.44;;;13.01;55.11
74542;BME280;63015;45.378;20.360;2022-10-22T04:04:45;100984.69;;;13.02;55.09
74542;BME280;63015;45.378;20.360;2022-10-22T04:06:45;100982.06;;;13.00;55.20
74542;BME280;63015;45.378;20.360;2022-10-22T04:08:47;100989.94;;;12.98;55.43
74542;BME280;63015;45.378;20.360;2022-10-22T04:10:50;100978.59;;;12.96;55.27
74542;BME280;63015;45.378;20.360;2022-10-22T04:12:51;100982.94;;;12.99;55.18
74542;BME280;63015;45.378;20.360;2022-10-22T04:14:52;100988.16;;;13.05;54.94
74542;BME280;63015;45.378;20.360;2022-10-22T04:16:52;100984.66;;;13.09;54.74
74542;BME280;63015;45.378;20.360;2022-10-22T04:18:53;100992.53;;;13.08;54.94
74542;BME280;63015;45.378;20.360;2022-10-22T04:20:54;100980.28;;;13.08;54.95
74542;BME280;63015;45.378;20.360;2022-10-22T04:22:54;100984.66;;;13.05;55.07
74542;BME280;63015;45.378;20.360;2022-10-22T04:24:55;100988.16;;;13.00;55.15
74542;BME280;63015;45.378;20.360;2022-10-22T04:26:55;100982.06;;;13.06;54.96
74542;BME280;63015;45.378;20.360;2022-10-22T04:28:56;100983.78;;;13.06;55.15
74542;BME280;63015;45.378;20.360;2022-10-22T04:30:56;100987.28;;;13.06;55.30
74542;BME280;63015;45.378;20.360;2022-10-22T04:32:57;100995.13;;;13.03;55.39
74542;BME280;63015;45.378;20.360;2022-10-22T04:34:57;100998.63;;;13.02;55.51
74542;BME280;63015;45.378;20.360;2022-10-22T04:36:58;100988.16;;;13.04;55.49
74542;BME280;63015;45.378;20.360;2022-10-22T04:39:00;100986.41;;;13.06;55.41
74542;BME280;63015;45.378;20.360;2022-10-22T04:41:11;100989.91;;;13.09;55.26
74542;BME280;63015;45.378;20.360;2022-10-22T04:43:12;100983.78;;;13.07;55.33
74542;BME280;63015;45.378;20.360;2022-10-22T04:45:12;100987.28;;;13.03;55.54
74542;BME280;63015;45.378;20.360;2022-10-22T04:47:14;100982.06;;;13.02;55.54
74542;BME280;63015;45.378;20.360;2022-10-22T04:49:15;100975.06;;;13.02;55.51
74542;BME280;63015;45.378;20.360;2022-10-22T04:51:18;100975.94;;;12.99;55.48
74542;BME280;63015;45.378;20.360;2022-10-22T04:53:19;100977.72;;;12.97;55.55
74542;BME280;63015;45.378;20.360;2022-10-22T04:55:20;100982.06;;;12.94;55.52
74542;BME280;63015;45.378;20.360;2022-10-22T04:57:20;100978.56;;;12.92;55.84
74542;BME280;63015;45.378;20.360;2022-10-22T04:59:21;100968.13;;;12.90;55.66
74542;BME280;63015;45.378;20.360;2022-10-22T05:01:24;100973.38;;;12.89;55.68
74542;BME280;63015;45.378;20.360;2022-10-22T05:03:25;100974.25;;;12.85;56.00
74542;BME280;63015;45.378;20.360;2022-10-22T05:05:26;100971.63;;;12.81;56.24
74542;BME280;63015;45.378;20.360;2022-10-22T05:07:26;100971.63;;;12.78;56.04
74542;BME280;63015;45.378;20.360;2022-10-22T05:09:27;100969.91;;;12.80;56.06
74542;BME280;63015;45.378;20.360;2022-10-22T05:11:30;100967.28;;;12.76;56.39
74542;BME280;63015;45.378;20.360;2022-10-22T05:13:31;100969.91;;;12.74;56.24
74542;BME280;63015;45.378;20.360;2022-10-22T05:15:32;100968.16;;;12.70;56.37
74542;BME280;63015;45.378;20.360;2022-10-22T05:17:36;100965.53;;;12.73;56.65
74542;BME280;63015;45.378;20.360;2022-10-22T05:19:36;100971.63;;;12.74;56.31
74542;BME280;63015;45.378;20.360;2022-10-22T05:21:37;100968.16;;;12.72;56.63
74542;BME280;63015;45.378;20.360;2022-10-22T05:23:38;100969.03;;;12.72;56.56
74542;BME280;63015;45.378;20.360;2022-10-22T05:25:38;100974.25;;;12.72;56.52
74542;BME280;63015;45.378;20.360;2022-10-22T05:27:39;100977.75;;;12.76;56.45
74542;BME280;63015;45.378;20.360;2022-10-22T05:29:40;100982.13;;;12.75;56.49
74542;BME280;63015;45.378;20.360;2022-10-22T05:31:40;100982.09;;;12.66;57.07
74542;BME280;63015;45.378;20.360;2022-10-22T05:33:42;100992.56;;;12.68;56.74
74542;BME280;63015;45.378;20.360;2022-10-22T05:35:42;100984.72;;;12.64;57.29
74542;BME280;63015;45.378;20.360;2022-10-22T05:37:43;100984.72;;;12.71;56.85
74542;BME280;63015;45.378;20.360;2022-10-22T05:39:43;100978.63;;;12.70;56.93
74542;BME280;63015;45.378;20.360;2022-10-22T05:41:44;100981.25;;;12.72;56.98
74542;BME280;63015;45.378;20.360;2022-10-22T05:43:45;100982.09;;;12.72;57.04
74542;BME280;63015;45.378;20.360;2022-10-22T05:45:46;100983.84;;;12.79;57.04
74542;BME280;63015;45.378;20.360;2022-10-22T05:47:47;100981.22;;;12.79;57.00
74542;BME280;63015;45.378;20.360;2022-10-22T05:49:47;100976.00;;;12.87;56.85
74542;BME280;63015;45.378;20.360;2022-10-22T05:51:48;100975.97;;;12.90;56.70
74542;BME280;63015;45.378;20.360;2022-10-22T05:53:54;100980.34;;;12.88;56.78
74542;BME280;63015;45.378;20.360;2022-10-22T05:55:55;100987.31;;;12.98;56.68
74542;BME280;63015;45.378;20.360;2022-10-22T05:57:55;100991.66;;;13.01;56.56
74542;BME280;63015;45.378;20.360;2022-10-22T05:59:56;100996.88;;;13.03;56.72
74542;BME280;63015;45.378;20.360;2022-10-22T06:01:56;101008.22;;;13.05;56.71
74542;BME280;63015;45.378;20.360;2022-10-22T06:04:00;101002.09;;;13.06;57.03
74542;BME280;63015;45.378;20.360;2022-10-22T06:06:04;100991.66;;;13.04;56.70
74542;BME280;63015;45.378;20.360;2022-10-22T06:08:10;100995.13;;;13.14;56.45
74542;BME280;63015;45.378;20.360;2022-10-22T06:10:17;100981.16;;;13.18;56.48
74542;BME280;63015;45.378;20.360;2022-10-22T06:12:19;100987.28;;;13.15;56.44
74542;BME280;63015;45.378;20.360;2022-10-22T06:14:20;100988.13;;;13.22;56.41
74542;BME280;63015;45.378;20.360;2022-10-22T06:16:20;100992.47;;;13.23;56.43
74542;BME280;63015;45.378;20.360;2022-10-22T06:18:21;100995.97;;;13.27;56.38
74542;BME280;63015;45.378;20.360;2022-10-22T06:20:22;101002.06;;;13.21;56.66
74542;BME280;63015;45.378;20.360;2022-10-22T06:22:22;100995.97;;;13.22;56.72
74542;BME280;63015;45.378;20.360;2022-10-22T06:24:23;100990.75;;;13.13;56.83
74542;BME280;63015;45.378;20.360;2022-10-22T06:26:23;100988.13;;;13.19;56.68
74542;BME280;63015;45.378;20.360;2022-10-22T06:28:24;100993.38;;;13.19;56.92
74542;BME280;63015;45.378;20.360;2022-10-22T06:30:25;100990.72;;;13.38;56.52
74542;BME280;63015;45.378;20.360;2022-10-22T06:32:26;100992.31;;;13.73;55.92
74542;BME280;63015;45.378;20.360;2022-10-22T06:34:26;100995.66;;;14.00;55.48
74542;BME280;63015;45.378;20.360;2022-10-22T06:36:27;101002.50;;;14.28;54.90
74542;BME280;63015;45.378;20.360;2022-10-22T06:38:27;101005.94;;;14.34;54.32
74542;BME280;63015;45.378;20.360;2022-10-22T06:40:28;100994.47;;;14.47;54.32
74542;BME280;63015;45.378;20.360;2022-10-22T06:42:28;100998.84;;;14.46;54.26
74542;BME280;63015;45.378;20.360;2022-10-22T06:44:29;100999.78;;;14.39;54.44
74542;BME280;63015;45.378;20.360;2022-10-22T06:46:30;100994.56;;;14.33;54.42
74542;BME280;63015;45.378;20.360;2022-10-22T06:48:31;100984.97;;;14.32;54.60
74542;BME280;63015;45.378;20.360;2022-10-22T06:50:34;100994.56;;;14.35;54.36
74542;BME280;63015;45.378;20.360;2022-10-22T06:52:34;100988.41;;;14.40;54.18
74542;BME280;63015;45.378;20.360;2022-10-22T06:54:35;100998.91;;;14.40;54.29
74542;BME280;63015;45.378;20.360;2022-10-22T06:56:36;101005.78;;;14.54;54.35
74542;BME280;63015;45.378;20.360;2022-10-22T06:58:36;100992.53;;;14.71;54.16
74542;BME280;63015;45.378;20.360;2022-10-22T07:00:37;100996.75;;;14.89;53.55
74542;BME280;63015;45.378;20.360;2022-10-22T07:02:37;100999.28;;;15.00;53.33
74542;BME280;63015;45.378;20.360;2022-10-22T07:04:38;101002.69;;;15.11;53.13
74542;BME280;63015;45.378;20.360;2022-10-22T07:06:38;101008.66;;;15.22;52.88
74542;BME280;63015;45.378;20.360;2022-10-22T07:08:40;101006.94;;;15.20;52.73
74542;BME280;63015;45.378;20.360;2022-10-22T07:10:41;101011.44;;;15.07;52.95
74542;BME280;63015;45.378;20.360;2022-10-22T07:12:42;101013.19;;;15.08;53.21
74542;BME280;63015;45.378;20.360;2022-10-22T07:14:42;101007.78;;;15.23;52.84
74542;BME280;63015;45.378;20.360;2022-10-22T07:16:43;101006.63;;;15.49;52.62
74542;BME280;63015;45.378;20.360;2022-10-22T07:18:46;101001.81;;;15.87;52.23
74542;BME280;63015;45.378;20.360;2022-10-22T07:20:48;101002.91;;;16.31;51.53
74542;BME280;63015;45.378;20.360;2022-10-22T07:22:48;101001.69;;;16.54;50.54
74542;BME280;63015;45.378;20.360;2022-10-22T07:24:49;101009.31;;;16.69;50.16
74542;BME280;63015;45.378;20.360;2022-10-22T07:26:49;101001.22;;;16.80;49.99
74542;BME280;63015;45.378;20.360;2022-10-22T07:28:50;101000.09;;;16.97;49.87
74542;BME280;63015;45.378;20.360;2022-10-22T07:30:51;101004.97;;;17.17;49.92
74542;BME280;63015;45.378;20.360;2022-10-22T07:32:52;101008.09;;;17.39;49.01
74542;BME280;63015;45.378;20.360;2022-10-22T07:34:52;100997.44;;;17.43;48.46
74542;BME280;63015;45.378;20.360;2022-10-22T07:36:53;101001.69;;;17.51;48.39
74542;BME280;63015;45.378;20.360;2022-10-22T07:38:56;100998.50;;;17.77;47.72
74542;BME280;63015;45.378;20.360;2022-10-22T07:40:57;101004.00;;;18.07;47.50
74542;BME280;63015;45.378;20.360;2022-10-22T07:42:58;100999.22;;;18.24;47.22
74542;BME280;63015;45.378;20.360;2022-10-22T07:44:59;100997.91;;;18.43;46.91
74542;BME280;63015;45.378;20.360;2022-10-22T07:46:59;100993.53;;;18.41;46.66
74542;BME280;63015;45.378;20.360;2022-10-22T07:49:00;100990.41;;;18.62;46.34
74542;BME280;63015;45.378;20.360;2022-10-22T07:51:00;100973.94;;;18.86;46.10
74542;BME280;63015;45.378;20.360;2022-10-22T07:53:01;100971.13;;;18.94;45.85
74542;BME280;63015;45.378;20.360;2022-10-22T07:55:02;100977.03;;;19.04;45.09
74542;BME280;63015;45.378;20.360;2022-10-22T07:57:03;100970.13;;;18.98;44.45
74542;BME280;63015;45.378;20.360;2022-10-22T07:59:03;100981.47;;;19.02;44.93
74542;BME280;63015;45.378;20.360;2022-10-22T08:01:04;100982.75;;;18.85;45.29
74542;BME280;63015;45.378;20.360;2022-10-22T08:03:05;100985.25;;;18.92;45.11
74542;BME280;63015;45.378;20.360;2022-10-22T08:05:06;100988.69;;;18.95;44.79
74542;BME280;63015;45.378;20.360;2022-10-22T08:07:07;100982.91;;;19.14;44.84
74542;BME280;63015;45.378;20.360;2022-10-22T08:09:07;100982.44;;;19.31;44.56
74542;BME280;63015;45.378;20.360;2022-10-22T08:11:08;100984.81;;;19.40;44.39
74542;BME280;63015;45.378;20.360;2022-10-22T08:13:09;100966.66;;;19.59;44.23
74542;BME280;63015;45.378;20.360;2022-10-22T08:15:10;100975.34;;;19.63;43.13
74542;BME280;63015;45.378;20.360;2022-10-22T08:17:10;100965.88;;;19.55;43.70
74542;BME280;63015;45.378;20.360;2022-10-22T08:19:11;100972.16;;;19.51;43.43
74542;BME280;63015;45.378;20.360;2022-10-22T08:21:12;100959.56;;;19.30;43.43
74542;BME280;63015;45.378;20.360;2022-10-22T08:23:13;100966.38;;;19.38;42.92
74542;BME280;63015;45.378;20.360;2022-10-22T08:25:14;100963.59;;;19.43;43.17
74542;BME280;63015;45.378;20.360;2022-10-22T08:27:14;100967.84;;;19.47;43.27
74542;BME280;63015;45.378;20.360;2022-10-22T08:29:15;100971.88;;;19.61;43.50
74542;BME280;63015;45.378;20.360;2022-10-22T08:31:16;100965.31;;;19.74;43.00
74542;BME280;63015;45.378;20.360;2022-10-22T08:33:16;100959.56;;;19.60;43.44
74542;BME280;63015;45.378;20.360;2022-10-22T08:35:17;100960.13;;;19.41;43.54
74542;BME280;63015;45.378;20.360;2022-10-22T08:37:17;100956.03;;;19.31;43.84
74542;BME280;63015;45.378;20.360;2022-10-22T08:39:18;100961.09;;;19.37;44.34
74542;BME280;63015;45.378;20.360;2022-10-22T08:41:21;100957.50;;;19.41;44.16
74542;BME280;63015;45.378;20.360;2022-10-22T08:48:44;100974.75;;;19.21;44.32
74542;BME280;63015;45.378;20.360;2022-10-22T08:50:47;100981.31;;;19.08;44.93
74542;BME280;63015;45.378;20.360;2022-10-22T08:52:54;100987.13;;;19.21;44.67
74542;BME280;63015;45.378;20.360;2022-10-22T08:54:58;100988.22;;;19.12;44.81
74542;BME280;63015;45.378;20.360;2022-10-22T08:59:10;100994.25;;;19.17;44.92
74542;BME280;63015;45.378;20.360;2022-10-22T09:01:38;100999.47;;;19.20;45.15
74542;BME280;63015;45.378;20.360;2022-10-22T09:03:54;100999.31;;;19.25;44.99
74542;BME280;63015;45.378;20.360;2022-10-22T09:06:11;100991.13;;;19.34;45.15
74542;BME280;63015;45.378;20.360;2022-10-22T09:08:14;100997.41;;;19.30;45.02
74542;BME280;63015;45.378;20.360;2022-10-22T09:10:18;100988.69;;;19.28;45.13
74542;BME280;63015;45.378;20.360;2022-10-22T09:12:21;100992.31;;;19.24;45.43
74542;BME280;63015;45.378;20.360;2022-10-22T09:14:25;100990.38;;;19.31;45.45
74542;BME280;63015;45.378;20.360;2022-10-22T09:16:41;100981.06;;;19.49;45.25
74542;BME280;63015;45.378;20.360;2022-10-22T09:26:16;100965.41;;;19.71;45.38
74542;BME280;63015;45.378;20.360;2022-10-22T09:28:16;100974.72;;;19.84;44.81
74542;BME280;63015;45.378;20.360;2022-10-22T09:30:21;100982.47;;;20.19;44.24
74542;BME280;63015;45.378;20.360;2022-10-22T09:32:22;100974.72;;;20.66;44.03
74542;BME280;63015;45.378;20.360;2022-10-22T09:34:22;100971.63;;;21.06;43.51
74542;BME280;63015;45.378;20.360;2022-10-22T09:36:23;100971.59;;;21.31;42.73
74542;BME280;63015;45.378;20.360;2022-10-22T09:38:33;100969.66;;;21.11;42.58
74542;BME280;63015;45.378;20.360;2022-10-22T09:40:52;100964.56;;;21.06;43.01
74542;BME280;63015;45.378;20.360;2022-10-22T09:42:53;100960.53;;;21.19;43.02
74542;BME280;63015;45.378;20.360;2022-10-22T09:44:58;100964.97;;;21.43;42.87
74542;BME280;63015;45.378;20.360;2022-10-22T09:46:59;100967.75;;;21.40;42.37
74542;BME280;63015;45.378;20.360;2022-10-22T09:49:09;100959.88;;;21.36;42.62
74542;BME280;63015;45.378;20.360;2022-10-22T09:55:15;100965.59;;;21.26;41.35
74542;BME280;63015;45.378;20.360;2022-10-22T09:57:20;100963.88;;;21.25;41.27
74542;BME280;63015;45.378;20.360;2022-10-22T09:59:30;100961.13;;;21.28;41.95
74542;BME280;63015;45.378;20.360;2022-10-22T10:01:33;100962.84;;;21.29;42.37
74542;BME280;63015;45.378;20.360;2022-10-22T10:03:34;100959.78;;;21.40;42.48
74542;BME280;63015;45.378;20.360;2022-10-22T10:05:35;100955.34;;;21.40;42.61
74542;BME280;63015;45.378;20.360;2022-10-22T10:07:36;100959.19;;;21.57;42.23
74542;BME280;63015;45.378;20.360;2022-10-22T10:09:37;100941.47;;;21.57;42.78
74542;BME280;63015;45.378;20.360;2022-10-22T10:11:58;100949.09;;;21.66;42.58
74542;BME280;63015;45.378;20.360;2022-10-22T10:18:37;100934.84;;;21.91;42.67
74542;BME280;63015;45.378;20.360;2022-10-22T10:23:26;100934.72;;;21.94;42.14
74542;BME280;63015;45.378;20.360;2022-10-22T10:26:21;100936.22;;;22.01;42.06
74542;BME280;63015;45.378;20.360;2022-10-22T10:34:47;100937.38;;;21.72;42.53
74542;BME280;63015;45.378;20.360;2022-10-22T10:37:05;100937.91;;;21.58;42.92
74542;BME280;63015;45.378;20.360;2022-10-22T10:46:21;100939.28;;;21.68;43.04
74542;BME280;63015;45.378;20.360;2022-10-22T10:48:55;100941.44;;;21.81;42.95
74542;BME280;63015;45.378;20.360;2022-10-22T10:55:29;100934.34;;;22.26;41.04
74542;BME280;63015;45.378;20.360;2022-10-22T11:05:00;100921.50;;;22.58;40.20
74542;BME280;63015;45.378;20.360;2022-10-22T11:07:07;100906.03;;;22.67;39.77
74542;BME280;63015;45.378;20.360;2022-10-22T11:09:29;100913.00;;;22.70;39.80
74542;BME280;63015;45.378;20.360;2022-10-22T11:11:39;100913.75;;;22.74;39.57
74542;BME280;63015;45.378;20.360;2022-10-22T11:13:57;100920.50;;;22.81;39.86
74542;BME280;63015;45.378;20.360;2022-10-22T11:18:26;100894.47;;;22.89;39.91
74542;BME280;63015;45.378;20.360;2022-10-22T11:20:43;100897.47;;;22.81;39.46
74542;BME280;63015;45.378;20.360;2022-10-22T11:22:50;100894.66;;;22.85;39.48
74542;BME280;63015;45.378;20.360;2022-10-22T11:25:19;100900.13;;;22.81;39.67
74542;BME280;63015;45.378;20.360;2022-10-22T11:29:27;100893.53;;;22.90;38.59
74542;BME280;63015;45.378;20.360;2022-10-22T11:31:31;100894.38;;;22.91;39.35
74542;BME280;63015;45.378;20.360;2022-10-22T11:33:38;100885.34;;;22.95;39.22
74542;BME280;63015;45.378;20.360;2022-10-22T11:35:44;100881.56;;;23.01;39.47
74542;BME280;63015;45.378;20.360;2022-10-22T11:37:46;100884.06;;;23.04;39.78
74542;BME280;63015;45.378;20.360;2022-10-22T11:39:55;100872.50;;;23.05;39.38
74542;BME280;63015;45.378;20.360;2022-10-22T11:41:58;100875.88;;;23.08;39.82
74542;BME280;63015;45.378;20.360;2022-10-22T11:44:09;100882.97;;;23.08;39.13
74542;BME280;63015;45.378;20.360;2022-10-22T11:48:18;100871.22;;;23.13;39.17
74542;BME280;63015;45.378;20.360;2022-10-22T11:50:24;100859.84;;;23.10;39.02
74542;BME280;63015;45.378;20.360;2022-10-22T11:52:37;100853.47;;;23.14;39.08
74542;BME280;63015;45.378;20.360;2022-10-22T11:54:40;100857.19;;;23.10;39.15
74542;BME280;63015;45.378;20.360;2022-10-22T11:56:44;100852.47;;;23.17;39.41
74542;BME280;63015;45.378;20.360;2022-10-22T11:58:46;100858.94;;;23.11;38.81
74542;BME280;63015;45.378;20.360;2022-10-22T12:00:47;100857.13;;;23.11;39.13
74542;BME280;63015;45.378;20.360;2022-10-22T12:03:01;100864.97;;;23.14;38.91
74542;BME280;63015;45.378;20.360;2022-10-22T12:07:34;100863.19;;;23.34;39.59
74542;BME280;63015;45.378;20.360;2022-10-22T12:09:50;100869.28;;;23.36;39.29